sensor_id;sensor_type;location;lat;lon;timestamp;temperature;humidity
1461;DHT22;724;49.910;12.530;2022-10-16T00:00:37;13.30;99.90
1461;DHT22;724;49.910;12.530;2022-10-16T00:03:05;13.30;99.90
1461;DHT22;724;49.910;12.530;2022-10-16T00:05:33;13.40;99.90
1461;DHT22;724;49.910;12.530;2022-10-16T00:08:04;13.30;99.90
1461;DHT22;724;49.910;12.530;2022-10-16T00:10:32;13.30;99.90
1461;DHT22;724;49.910;12.530;2022-10-16T00:12:59;13.30;99.90
1461;DHT22;724;49.910;12.530;2022-10-16T00:15:25;13.30;99.90
1461;DHT22;724;49.910;12.530;2022-10-16T00:17:52;13.30;99.90
1461;DHT22;724;49.910;12.530;2022-10-16T00:20:19;13.30;99.90
1461;DHT22;724;49.910;12.530;2022-10-16T00:22:46;13.30;99.90
1461;DHT22;724;49.910;12.530;2022-10-16T00:25:13;13.30;99.90
1461;DHT22;724;49.910;12.530;2022-10-16T00:27:41;13.30;99.90
1461;DHT22;724;49.910;12.530;2022-10-16T00:30:08;13.30;99.90
1461;DHT22;724;49.910;12.530;2022-10-16T00:32:35;13.30;99.90
1461;DHT22;724;49.910;12.530;2022-10-16T00:35:02;13.40;99.90
1461;DHT22;724;49.910;12.530;2022-10-16T00:37:29;13.40;99.90
1461;DHT22;724;49.910;12.530;2022-10-16T00:39:56;13.40;99.90
1461;DHT22;724;49.910;12.530;2022-10-16T00:42:23;13.40;99.90
1461;DHT22;724;49.910;12.530;2022-10-16T00:44:53;13.40;99.90
1461;DHT22;724;49.910;12.530;2022-10-16T00:47:25;13.40;99.90
1461;DHT22;724;49.910;12.530;2022-10-16T00:49:58;13.40;99.90
1461;DHT22;724;49.910;12.530;2022-10-16T00:52:25;13.40;99.90
1461;DHT22;724;49.910;12.530;2022-10-16T00:54:53;13.30;99.90
1461;DHT22;724;49.910;12.530;2022-10-16T00:57:20;13.30;99.90
1461;DHT22;724;49.910;12.530;2022-10-16T00:59:47;13.40;99.90
1461;DHT22;724;49.910;12.530;2022-10-16T01:02:16;13.40;99.90
1461;DHT22;724;49.910;12.530;2022-10-16T01:04:47;13.40;99.90
1461;DHT22;724;49.910;12.530;2022-10-16T01:07:20;13.40;99.90
1461;DHT22;724;49.910;12.530;2022-10-16T01:10:01;13.40;99.90
1461;DHT22;724;49.910;12.530;2022-10-16T01:12:35;13.40;99.90
1461;DHT22;724;49.910;12.530;2022-10-16T01:15:08;13.50;99.90
1461;DHT22;724;49.910;12.530;2022-10-16T01:17:43;13.40;99.90
1461;DHT22;724;49.910;12.530;2022-10-16T01:20:17;13.40;99.90
1461;DHT22;724;49.910;12.530;2022-10-16T01:22:59;13.40;99.90
1461;DHT22;724;49.910;12.530;2022-10-16T01:25:37;13.40;99.90
1461;DHT22;724;49.910;12.530;2022-10-16T01:28:10;13.40;99.90
1461;DHT22;724;49.910;12.530;2022-10-16T01:30:40;13.40;99.90
1461;DHT22;724;49.910;12.530;2022-10-16T01:33:11;13.40;99.90
1461;DHT22;724;49.910;12.530;2022-10-16T01:35:43;13.40;99.90
1461;DHT22;724;49.910;12.530;2022-10-16T01:38:15;13.30;99.90
1461;DHT22;724;49.910;12.530;2022-10-16T01:40:46;13.40;99.90
1461;DHT22;724;49.910;12.530;2022-10-16T01:43:19;13.30;99.90
1461;DHT22;724;49.910;12.530;2022-10-16T01:45:49;13.40;99.90
1461;DHT22;724;49.910;12.530;2022-10-16T01:48:19;13.30;99.90
1461;DHT22;724;49.910;12.530;2022-10-16T01:50:54;13.40;99.90
1461;DHT22;724;49.910;12.530;2022-10-16T01:53:22;13.40;99.90
1461;DHT22;724;49.910;12.530;2022-10-16T01:55:52;13.40;99.90
1461;DHT22;724;49.910;12.530;2022-10-16T01:58:23;13.40;99.90
1461;DHT22;724;49.910;12.530;2022-10-16T02:00:52;13.40;99.90
1461;DHT22;724;49.910;12.530;2022-10-16T02:03:21;13.40;99.90
1461;DHT22;724;49.910;12.530;2022-10-16T02:05:51;13.40;99.90
1461;DHT22;724;49.910;12.530;2022-10-16T02:08:19;13.40;99.90
1461;DHT22;724;49.910;12.530;2022-10-16T02:10:46;13.40;99.90
1461;DHT22;724;49.910;12.530;2022-10-16T02:13:17;13.40;99.90
1461;DHT22;724;49.910;12.530;2022-10-16T02:15:45;13.40;99.90
1461;DHT22;724;49.910;12.530;2022-10-16T02:18:12;13.40;99.90
1461;DHT22;724;49.910;12.530;2022-10-16T02:20:46;13.40;99.90
1461;DHT22;724;49.910;12.530;2022-10-16T02:23:21;13.40;99.90
1461;DHT22;724;49.910;12.530;2022-10-16T02:25:50;13.40;99.90
1461;DHT22;724;49.910;12.530;2022-10-16T02:28:22;13.50;99.90
1461;DHT22;724;49.910;12.530;2022-10-16T02:30:57;13.40;99.90
1461;DHT22;724;49.910;12.530;2022-10-16T02:33:25;13.40;99.90
1461;DHT22;724;49.910;12.530;2022-10-16T02:35:54;13.40;99.90
1461;DHT22;724;49.910;12.530;2022-10-16T02:38:22;13.40;99.90
1461;DHT22;724;49.910;12.530;2022-10-16T02:40:50;13.40;99.90
1461;DHT22;724;49.910;12.530;2022-10-16T02:43:16;13.30;99.90
1461;DHT22;724;49.910;12.530;2022-10-16T02:45:43;13.40;99.90
1461;DHT22;724;49.910;12.530;2022-10-16T02:48:12;13.40;99.90
1461;DHT22;724;49.910;12.530;2022-10-16T02:50:38;13.40;99.90
1461;DHT22;724;49.910;12.530;2022-10-16T02:53:05;13.40;99.90
1461;DHT22;724;49.910;12.530;2022-10-16T02:55:32;13.30;99.90
1461;DHT22;724;49.910;12.530;2022-10-16T02:57:59;13.40;99.90
1461;DHT22;724;49.910;12.530;2022-10-16T03:00:25;13.40;99.90
1461;DHT22;724;49.910;12.530;2022-10-16T03:02:52;13.50;99.90
1461;DHT22;724;49.910;12.530;2022-10-16T03:05:20;13.40;99.90
1461;DHT22;724;49.910;12.530;2022-10-16T03:07:47;13.50;99.90
1461;DHT22;724;49.910;12.530;2022-10-16T03:10:14;13.50;99.90
1461;DHT22;724;49.910;12.530;2022-10-16T03:12:41;13.50;99.90
1461;DHT22;724;49.910;12.530;2022-10-16T03:15:08;13.50;99.90
1461;DHT22;724;49.910;12.530;2022-10-16T03:17:35;13.50;99.90
1461;DHT22;724;49.910;12.530;2022-10-16T03:20:03;13.60;99.90
1461;DHT22;724;49.910;12.530;2022-10-16T03:22:31;13.50;99.90
1461;DHT22;724;49.910;12.530;2022-10-16T03:24:58;13.60;99.90
1461;DHT22;724;49.910;12.530;2022-10-16T03:27:25;13.60;99.90
1461;DHT22;724;49.910;12.530;2022-10-16T03:29:52;13.60;99.90
1461;DHT22;724;49.910;12.530;2022-10-16T03:32:18;13.60;99.90
1461;DHT22;724;49.910;12.530;2022-10-16T03:34:45;13.60;99.90
1461;DHT22;724;49.910;12.530;2022-10-16T03:37:12;13.60;99.90
1461;DHT22;724;49.910;12.530;2022-10-16T03:39:40;13.50;99.90
1461;DHT22;724;49.910;12.530;2022-10-16T03:42:07;13.50;99.90
1461;DHT22;724;49.910;12.530;2022-10-16T03:44:34;13.50;99.90
1461;DHT22;724;49.910;12.530;2022-10-16T03:47:01;13.60;99.90
1461;DHT22;724;49.910;12.530;2022-10-16T03:49:28;13.60;99.90
1461;DHT22;724;49.910;12.530;2022-10-16T03:51:54;13.50;99.90
1461;DHT22;724;49.910;12.530;2022-10-16T03:54:21;13.50;99.90
1461;DHT22;724;49.910;12.530;2022-10-16T03:56:49;13.50;99.90
1461;DHT22;724;49.910;12.530;2022-10-16T03:59:16;13.60;99.90
1461;DHT22;724;49.910;12.530;2022-10-16T04:01:43;13.50;99.90
1461;DHT22;724;49.910;12.530;2022-10-16T04:04:10;13.60;99.90
1461;DHT22;724;49.910;12.530;2022-10-16T04:06:36;13.50;99.90
1461;DHT22;724;49.910;12.530;2022-10-16T04:09:03;13.50;99.90
1461;DHT22;724;49.910;12.530;2022-10-16T04:11:30;13.50;99.90
1461;DHT22;724;49.910;12.530;2022-10-16T04:13:58;13.50;99.90
1461;DHT22;724;49.910;12.530;2022-10-16T04:16:25;13.50;99.90
1461;DHT22;724;49.910;12.530;2022-10-16T04:18:52;13.50;99.90
1461;DHT22;724;49.910;12.530;2022-10-16T04:21:18;13.50;99.90
1461;DHT22;724;49.910;12.530;2022-10-16T04:23:45;13.50;99.90
1461;DHT22;724;49.910;12.530;2022-10-16T04:26:12;13.50;99.90
1461;DHT22;724;49.910;12.530;2022-10-16T04:28:38;13.50;99.90
1461;DHT22;724;49.910;12.530;2022-10-16T04:31:07;13.60;99.90
1461;DHT22;724;49.910;12.530;2022-10-16T04:33:33;13.50;99.90
1461;DHT22;724;49.910;12.530;2022-10-16T04:36:01;13.50;99.90
1461;DHT22;724;49.910;12.530;2022-10-16T04:38:28;13.50;99.90
1461;DHT22;724;49.910;12.530;2022-10-16T04:40:55;13.50;99.90
1461;DHT22;724;49.910;12.530;2022-10-16T04:43:23;13.50;99.90
1461;DHT22;724;49.910;12.530;2022-10-16T04:45:49;13.40;99.90
1461;DHT22;724;49.910;12.530;2022-10-16T04:48:18;13.40;99.90
1461;DHT22;724;49.910;12.530;2022-10-16T04:50:45;13.40;99.90
1461;DHT22;724;49.910;12.530;2022-10-16T04:53:12;13.40;99.90
1461;DHT22;724;49.910;12.530;2022-10-16T04:55:39;13.50;99.90
1461;DHT22;724;49.910;12.530;2022-10-16T04:58:06;13.50;99.90
1461;DHT22;724;49.910;12.530;2022-10-16T05:00:33;13.50;99.90
1461;DHT22;724;49.910;12.530;2022-10-16T05:03:00;13.50;99.90
1461;DHT22;724;49.910;12.530;2022-10-16T05:05:28;13.50;99.90
1461;DHT22;724;49.910;12.530;2022-10-16T05:07:55;13.50;99.90
1461;DHT22;724;49.910;12.530;2022-10-16T05:10:21;13.50;99.90
1461;DHT22;724;49.910;12.530;2022-10-16T05:12:48;13.60;99.90
1461;DHT22;724;49.910;12.530;2022-10-16T05:15:15;13.60;99.90
1461;DHT22;724;49.910;12.530;2022-10-16T05:17:42;13.60;99.90
1461;DHT22;724;49.910;12.530;2022-10-16T05:20:09;13.70;99.90
1461;DHT22;724;49.910;12.530;2022-10-16T05:22:37;13.60;99.90
1461;DHT22;724;49.910;12.530;2022-10-16T05:25:04;13.70;99.90
1461;DHT22;724;49.910;12.530;2022-10-16T05:27:31;13.70;99.90
1461;DHT22;724;49.910;12.530;2022-10-16T05:29:58;13.70;99.90
1461;DHT22;724;49.910;12.530;2022-10-16T05:32:25;13.70;99.90
1461;DHT22;724;49.910;12.530;2022-10-16T05:34:51;13.70;99.90
1461;DHT22;724;49.910;12.530;2022-10-16T05:37:18;13.70;99.90
1461;DHT22;724;49.910;12.530;2022-10-16T05:39:46;13.70;99.90
1461;DHT22;724;49.910;12.530;2022-10-16T05:42:13;13.70;99.90
1461;DHT22;724;49.910;12.530;2022-10-16T05:44:40;13.70;99.90
1461;DHT22;724;49.910;12.530;2022-10-16T05:47:07;13.70;99.90
1461;DHT22;724;49.910;12.530;2022-10-16T05:49:34;13.70;99.90
1461;DHT22;724;49.910;12.530;2022-10-16T05:52:00;13.70;99.90
1461;DHT22;724;49.910;12.530;2022-10-16T05:54:27;13.70;99.90
1461;DHT22;724;49.910;12.530;2022-10-16T05:56:55;13.70;99.90
1461;DHT22;724;49.910;12.530;2022-10-16T05:59:22;13.70;99.90
1461;DHT22;724;49.910;12.530;2022-10-16T06:01:49;13.70;99.90
1461;DHT22;724;49.910;12.530;2022-10-16T06:04:15;13.70;99.90
1461;DHT22;724;49.910;12.530;2022-10-16T06:06:42;13.70;99.90
1461;DHT22;724;49.910;12.530;2022-10-16T06:09:09;13.70;99.90
1461;DHT22;724;49.910;12.530;2022-10-16T06:11:36;13.70;99.90
1461;DHT22;724;49.910;12.530;2022-10-16T06:14:05;13.70;99.90
1461;DHT22;724;49.910;12.530;2022-10-16T06:16:33;13.60;99.90
1461;DHT22;724;49.910;12.530;2022-10-16T06:19:00;13.60;99.90
1461;DHT22;724;49.910;12.530;2022-10-16T06:21:28;13.60;99.90
1461;DHT22;724;49.910;12.530;2022-10-16T06:23:56;13.60;99.90
1461;DHT22;724;49.910;12.530;2022-10-16T06:26:25;13.60;99.90
1461;DHT22;724;49.910;12.530;2022-10-16T06:28:54;13.70;99.90
1461;DHT22;724;49.910;12.530;2022-10-16T06:31:23;13.60;99.90
1461;DHT22;724;49.910;12.530;2022-10-16T06:33:53;13.60;99.90
1461;DHT22;724;49.910;12.530;2022-10-16T06:36:21;13.70;99.90
1461;DHT22;724;49.910;12.530;2022-10-16T06:38:48;13.70;99.90
1461;DHT22;724;49.910;12.530;2022-10-16T06:41:16;13.70;99.90
1461;DHT22;724;49.910;12.530;2022-10-16T06:43:43;13.70;99.90
1461;DHT22;724;49.910;12.530;2022-10-16T06:46:12;13.70;99.90
1461;DHT22;724;49.910;12.530;2022-10-16T06:48:41;13.70;99.90
1461;DHT22;724;49.910;12.530;2022-10-16T06:51:10;13.90;99.90
1461;DHT22;724;49.910;12.530;2022-10-16T06:53:39;14.00;99.90
1461;DHT22;724;49.910;12.530;2022-10-16T06:56:08;14.10;80.20
1461;DHT22;724;49.910;12.530;2022-10-16T06:58:35;14.20;1.00
1461;DHT22;724;49.910;12.530;2022-10-16T07:01:02;14.50;1.00
1461;DHT22;724;49.910;12.530;2022-10-16T07:03:29;14.70;99.90
1461;DHT22;724;49.910;12.530;2022-10-16T07:05:57;14.80;1.00
1461;DHT22;724;49.910;12.530;2022-10-16T07:08:23;15.00;99.90
1461;DHT22;724;49.910;12.530;2022-10-16T07:10:59;15.00;99.90
1461;DHT22;724;49.910;12.530;2022-10-16T07:13:26;14.90;99.90
1461;DHT22;724;49.910;12.530;2022-10-16T07:15:53;15.10;33.60
1461;DHT22;724;49.910;12.530;2022-10-16T07:18:19;15.20;1.00
1461;DHT22;724;49.910;12.530;2022-10-16T07:20:47;15.00;12.50
1461;DHT22;724;49.910;12.530;2022-10-16T07:23:15;14.90;99.90
1461;DHT22;724;49.910;12.530;2022-10-16T07:25:42;14.80;99.90
1461;DHT22;724;49.910;12.530;2022-10-16T07:28:08;14.50;99.90
1461;DHT22;724;49.910;12.530;2022-10-16T07:30:35;14.40;1.00
1461;DHT22;724;49.910;12.530;2022-10-16T07:33:03;14.40;1.00
1461;DHT22;724;49.910;12.530;2022-10-16T07:35:30;14.50;1.00
1461;DHT22;724;49.910;12.530;2022-10-16T07:37:57;14.50;1.00
1461;DHT22;724;49.910;12.530;2022-10-16T07:40:25;14.60;1.00
1461;DHT22;724;49.910;12.530;2022-10-16T07:42:52;14.40;1.00
1461;DHT22;724;49.910;12.530;2022-10-16T07:45:19;14.40;1.00
1461;DHT22;724;49.910;12.530;2022-10-16T07:47:46;14.40;1.00
1461;DHT22;724;49.910;12.530;2022-10-16T07:50:13;14.40;1.00
1461;DHT22;724;49.910;12.530;2022-10-16T07:52:39;14.40;1.00
1461;DHT22;724;49.910;12.530;2022-10-16T07:55:07;14.40;1.00
1461;DHT22;724;49.910;12.530;2022-10-16T07:57:35;14.40;1.00
1461;DHT22;724;49.910;12.530;2022-10-16T08:00:02;14.50;1.00
1461;DHT22;724;49.910;12.530;2022-10-16T08:02:29;14.50;1.00
1461;DHT22;724;49.910;12.530;2022-10-16T08:04:57;14.50;1.00
1461;DHT22;724;49.910;12.530;2022-10-16T08:07:24;14.60;1.00
1461;DHT22;724;49.910;12.530;2022-10-16T08:09:51;14.80;1.00
1461;DHT22;724;49.910;12.530;2022-10-16T08:12:18;14.90;1.00
1461;DHT22;724;49.910;12.530;2022-10-16T08:14:46;15.40;1.00
1461;DHT22;724;49.910;12.530;2022-10-16T08:17:14;15.50;1.00
1461;DHT22;724;49.910;12.530;2022-10-16T08:19:44;15.40;99.90
1461;DHT22;724;49.910;12.530;2022-10-16T08:22:11;15.40;99.90
1461;DHT22;724;49.910;12.530;2022-10-16T08:24:37;15.30;99.90
1461;DHT22;724;49.910;12.530;2022-10-16T08:27:04;15.30;99.90
1461;DHT22;724;49.910;12.530;2022-10-16T08:29:32;15.40;99.90
1461;DHT22;724;49.910;12.530;2022-10-16T08:32:00;15.90;1.00
1461;DHT22;724;49.910;12.530;2022-10-16T08:34:27;16.20;1.00
1461;DHT22;724;49.910;12.530;2022-10-16T08:36:54;16.70;99.90
1461;DHT22;724;49.910;12.530;2022-10-16T08:39:20;17.20;1.00
1461;DHT22;724;49.910;12.530;2022-10-16T08:42:03;16.80;1.00
1461;DHT22;724;49.910;12.530;2022-10-16T08:44:49;16.70;1.00
1461;DHT22;724;49.910;12.530;2022-10-16T08:47:26;16.40;1.00
1461;DHT22;724;49.910;12.530;2022-10-16T08:50:02;16.20;68.40
1461;DHT22;724;49.910;12.530;2022-10-16T08:52:38;16.60;99.90
1461;DHT22;724;49.910;12.530;2022-10-16T08:55:06;16.30;99.90
1461;DHT22;724;49.910;12.530;2022-10-16T08:57:33;16.30;99.90
1461;DHT22;724;49.910;12.530;2022-10-16T09:00:05;16.40;99.90
1461;DHT22;724;49.910;12.530;2022-10-16T09:02:36;16.50;99.90
1461;DHT22;724;49.910;12.530;2022-10-16T09:05:31;16.70;12.20
1461;DHT22;724;49.910;12.530;2022-10-16T09:08:07;17.00;1.00
1461;DHT22;724;49.910;12.530;2022-10-16T09:10:44;17.20;1.00
1461;DHT22;724;49.910;12.530;2022-10-16T09:13:19;17.00;1.00
1461;DHT22;724;49.910;12.530;2022-10-16T09:15:53;17.00;1.00
1461;DHT22;724;49.910;12.530;2022-10-16T09:18:26;17.20;1.00
1461;DHT22;724;49.910;12.530;2022-10-16T09:21:00;17.10;1.00
1461;DHT22;724;49.910;12.530;2022-10-16T09:23:30;17.20;1.00
1461;DHT22;724;49.910;12.530;2022-10-16T09:25:58;17.40;1.00
1461;DHT22;724;49.910;12.530;2022-10-16T09:28:25;18.20;99.90
1461;DHT22;724;49.910;12.530;2022-10-16T09:30:52;19.10;99.90
1461;DHT22;724;49.910;12.530;2022-10-16T09:33:22;19.70;1.00
1461;DHT22;724;49.910;12.530;2022-10-16T09:35:53;18.90;1.00
1461;DHT22;724;49.910;12.530;2022-10-16T09:38:23;18.70;1.00
1461;DHT22;724;49.910;12.530;2022-10-16T09:40:53;18.50;1.00
1461;DHT22;724;49.910;12.530;2022-10-16T09:43:23;18.30;1.00
1461;DHT22;724;49.910;12.530;2022-10-16T09:45:58;18.00;99.90
1461;DHT22;724;49.910;12.530;2022-10-16T09:48:28;18.40;99.90
1461;DHT22;724;49.910;12.530;2022-10-16T09:51:01;17.90;99.90
1461;DHT22;724;49.910;12.530;2022-10-16T09:53:40;18.60;72.10
1461;DHT22;724;49.910;12.530;2022-10-16T09:56:09;18.60;1.00
1461;DHT22;724;49.910;12.530;2022-10-16T09:58:38;18.40;28.40
1461;DHT22;724;49.910;12.530;2022-10-16T10:01:12;19.40;1.00
1461;DHT22;724;49.910;12.530;2022-10-16T10:03:41;22.00;1.00
1461;DHT22;724;49.910;12.530;2022-10-16T10:06:20;21.40;1.00
1461;DHT22;724;49.910;12.530;2022-10-16T10:08:56;21.30;1.00
1461;DHT22;724;49.910;12.530;2022-10-16T10:11:41;20.70;1.00
1461;DHT22;724;49.910;12.530;2022-10-16T10:14:23;20.80;1.00
1461;DHT22;724;49.910;12.530;2022-10-16T10:16:52;19.80;1.00
1461;DHT22;724;49.910;12.530;2022-10-16T10:19:21;18.90;1.00
1461;DHT22;724;49.910;12.530;2022-10-16T10:21:50;18.90;1.00
1461;DHT22;724;49.910;12.530;2022-10-16T10:24:19;19.60;1.00
1461;DHT22;724;49.910;12.530;2022-10-16T10:26:57;22.80;1.00
1461;DHT22;724;49.910;12.530;2022-10-16T10:29:37;24.10;99.90
1461;DHT22;724;49.910;12.530;2022-10-16T10:32:15;22.90;99.90
1461;DHT22;724;49.910;12.530;2022-10-16T10:35:07;21.50;99.90
1461;DHT22;724;49.910;12.530;2022-10-16T10:37:51;20.50;99.90
1461;DHT22;724;49.910;12.530;2022-10-16T10:40:30;19.50;99.90
1461;DHT22;724;49.910;12.530;2022-10-16T10:43:06;19.50;99.90
1461;DHT22;724;49.910;12.530;2022-10-16T10:45:42;20.40;99.90
1461;DHT22;724;49.910;12.530;2022-10-16T10:48:20;20.50;99.90
1461;DHT22;724;49.910;12.530;2022-10-16T10:50:51;20.50;99.90
1461;DHT22;724;49.910;12.530;2022-10-16T10:53:32;21.20;99.90
1461;DHT22;724;49.910;12.530;2022-10-16T10:56:23;23.80;99.90
1461;DHT22;724;49.910;12.530;2022-10-16T10:59:25;24.00;99.90
1461;DHT22;724;49.910;12.530;2022-10-16T11:01:56;22.40;99.90
1461;DHT22;724;49.910;12.530;2022-10-16T11:04:49;21.70;99.90
1461;DHT22;724;49.910;12.530;2022-10-16T11:07:28;20.80;99.90
1461;DHT22;724;49.910;12.530;2022-10-16T11:10:15;20.70;99.90
1461;DHT22;724;49.910;12.530;2022-10-16T11:12:46;20.90;99.90
1461;DHT22;724;49.910;12.530;2022-10-16T11:15:17;20.80;99.90
1461;DHT22;724;49.910;12.530;2022-10-16T11:17:49;20.80;99.90
1461;DHT22;724;49.910;12.530;2022-10-16T11:20:21;20.90;99.90
1461;DHT22;724;49.910;12.530;2022-10-16T11:22:52;20.80;99.90
1461;DHT22;724;49.910;12.530;2022-10-16T11:25:24;21.50;99.90
1461;DHT22;724;49.910;12.530;2022-10-16T11:27:57;21.90;99.90
1461;DHT22;724;49.910;12.530;2022-10-16T11:30:27;20.30;99.90
1461;DHT22;724;49.910;12.530;2022-10-16T11:33:04;20.20;99.90
1461;DHT22;724;49.910;12.530;2022-10-16T11:35:42;19.70;99.90
1461;DHT22;724;49.910;12.530;2022-10-16T11:38:15;19.90;99.90
1461;DHT22;724;49.910;12.530;2022-10-16T11:40:46;19.80;99.90
1461;DHT22;724;49.910;12.530;2022-10-16T11:43:19;19.90;99.90
1461;DHT22;724;49.910;12.530;2022-10-16T11:45:51;20.30;99.90
1461;DHT22;724;49.910;12.530;2022-10-16T11:48:24;20.30;99.90
1461;DHT22;724;49.910;12.530;2022-10-16T11:50:56;20.20;99.90
1461;DHT22;724;49.910;12.530;2022-10-16T11:53:35;20.50;99.90
1461;DHT22;724;49.910;12.530;2022-10-16T11:56:07;20.40;99.90
1461;DHT22;724;49.910;12.530;2022-10-16T11:58:37;20.00;99.90
1461;DHT22;724;49.910;12.530;2022-10-16T12:01:15;20.00;99.90
1461;DHT22;724;49.910;12.530;2022-10-16T12:03:47;19.80;99.90
1461;DHT22;724;49.910;12.530;2022-10-16T12:06:25;19.50;99.90
1461;DHT22;724;49.910;12.530;2022-10-16T12:08:56;20.10;99.90
1461;DHT22;724;49.910;12.530;2022-10-16T12:11:35;20.50;99.90
1461;DHT22;724;49.910;12.530;2022-10-16T12:14:18;21.20;99.90
1461;DHT22;724;49.910;12.530;2022-10-16T12:16:53;21.00;99.90
1461;DHT22;724;49.910;12.530;2022-10-16T12:19:21;21.10;99.90
1461;DHT22;724;49.910;12.530;2022-10-16T12:21:50;20.90;99.90
1461;DHT22;724;49.910;12.530;2022-10-16T12:24:26;20.90;99.90
1461;DHT22;724;49.910;12.530;2022-10-16T12:26:55;20.50;99.90
1461;DHT22;724;49.910;12.530;2022-10-16T12:29:34;20.50;99.90
1461;DHT22;724;49.910;12.530;2022-10-16T12:32:03;20.30;99.90
1461;DHT22;724;49.910;12.530;2022-10-16T12:34:37;20.40;99.90
1461;DHT22;724;49.910;12.530;2022-10-16T12:37:11;20.10;99.90
1461;DHT22;724;49.910;12.530;2022-10-16T12:39:39;19.80;99.90
1461;DHT22;724;49.910;12.530;2022-10-16T12:42:22;19.50;99.90
1461;DHT22;724;49.910;12.530;2022-10-16T12:44:49;19.30;99.90
1461;DHT22;724;49.910;12.530;2022-10-16T12:47:21;19.30;99.90
1461;DHT22;724;49.910;12.530;2022-10-16T12:49:50;19.20;99.90
1461;DHT22;724;49.910;12.530;2022-10-16T12:52:26;19.30;99.90
1461;DHT22;724;49.910;12.530;2022-10-16T12:54:56;19.40;99.90
1461;DHT22;724;49.910;12.530;2022-10-16T12:57:39;19.40;99.90
1461;DHT22;724;49.910;12.530;2022-10-16T13:00:17;19.20;99.90
1461;DHT22;724;49.910;12.530;2022-10-16T13:03:21;19.20;99.90
1461;DHT22;724;49.910;12.530;2022-10-16T13:05:59;19.60;99.90
1461;DHT22;724;49.910;12.530;2022-10-16T13:08:39;19.60;99.90
1461;DHT22;724;49.910;12.530;2022-10-16T13:11:14;19.50;99.90
1461;DHT22;724;49.910;12.530;2022-10-16T13:14:07;19.30;99.90
1461;DHT22;724;49.910;12.530;2022-10-16T13:16:46;19.30;99.90
1461;DHT22;724;49.910;12.530;2022-10-16T13:19:22;19.40;99.90
1461;DHT22;724;49.910;12.530;2022-10-16T13:21:56;19.50;99.90
1461;DHT22;724;49.910;12.530;2022-10-16T13:24:40;19.70;99.90
1461;DHT22;724;49.910;12.530;2022-10-16T13:27:14;19.50;99.90
1461;DHT22;724;49.910;12.530;2022-10-16T13:29:52;19.50;99.90
1461;DHT22;724;49.910;12.530;2022-10-16T13:32:21;19.50;99.90
1461;DHT22;724;49.910;12.530;2022-10-16T13:34:49;19.50;99.90
1461;DHT22;724;49.910;12.530;2022-10-16T13:37:20;19.60;99.90
1461;DHT22;724;49.910;12.530;2022-10-16T13:39:47;19.90;99.90
1461;DHT22;724;49.910;12.530;2022-10-16T13:42:20;20.00;99.90
1461;DHT22;724;49.910;12.530;2022-10-16T13:44:51;19.90;99.90
1461;DHT22;724;49.910;12.530;2022-10-16T13:47:20;19.70;99.90
1461;DHT22;724;49.910;12.530;2022-10-16T13:49:59;19.60;99.90
1461;DHT22;724;49.910;12.530;2022-10-16T13:52:26;19.50;99.90
1461;DHT22;724;49.910;12.530;2022-10-16T13:54:53;19.60;99.90
1461;DHT22;724;49.910;12.530;2022-10-16T13:57:22;19.60;99.90
1461;DHT22;724;49.910;12.530;2022-10-16T13:59:50;19.60;99.90
1461;DHT22;724;49.910;12.530;2022-10-16T14:02:21;19.50;99.90
1461;DHT22;724;49.910;12.530;2022-10-16T14:04:49;19.50;99.90
1461;DHT22;724;49.910;12.530;2022-10-16T14:07:21;19.50;99.90
1461;DHT22;724;49.910;12.530;2022-10-16T14:09:51;19.60;99.90
1461;DHT22;724;49.910;12.530;2022-10-16T14:12:18;19.30;99.90
1461;DHT22;724;49.910;12.530;2022-10-16T14:14:47;19.30;99.90
1461;DHT22;724;49.910;12.530;2022-10-16T14:17:22;19.40;99.90
1461;DHT22;724;49.910;12.530;2022-10-16T14:19:50;19.30;99.90
1461;DHT22;724;49.910;12.530;2022-10-16T14:22:30;19.30;99.90
1461;DHT22;724;49.910;12.530;2022-10-16T14:24:58;19.80;99.90
1461;DHT22;724;49.910;12.530;2022-10-16T14:27:30;20.10;99.90
1461;DHT22;724;49.910;12.530;2022-10-16T14:30:17;20.00;99.90
1461;DHT22;724;49.910;12.530;2022-10-16T14:32:55;19.70;99.90
1461;DHT22;724;49.910;12.530;2022-10-16T14:35:24;19.50;99.90
1461;DHT22;724;49.910;12.530;2022-10-16T14:37:52;19.50;99.90
1461;DHT22;724;49.910;12.530;2022-10-16T14:40:21;19.30;99.90
1461;DHT22;724;49.910;12.530;2022-10-16T14:42:49;19.20;99.90
1461;DHT22;724;49.910;12.530;2022-10-16T14:45:20;19.30;99.90
1461;DHT22;724;49.910;12.530;2022-10-16T14:47:51;19.30;99.90
1461;DHT22;724;49.910;12.530;2022-10-16T14:50:20;19.10;99.90
1461;DHT22;724;49.910;12.530;2022-10-16T14:52:47;19.30;99.90
1461;DHT22;724;49.910;12.530;2022-10-16T14:55:14;19.20;99.90
1461;DHT22;724;49.910;12.530;2022-10-16T14:57:42;19.40;99.90
1461;DHT22;724;49.910;12.530;2022-10-16T15:00:17;19.50;99.90
1461;DHT22;724;49.910;12.530;2022-10-16T15:02:45;19.30;99.90
1461;DHT22;724;49.910;12.530;2022-10-16T15:05:21;19.00;99.90
1461;DHT22;724;49.910;12.530;2022-10-16T15:07:49;18.90;99.90
1461;DHT22;724;49.910;12.530;2022-10-16T15:10:17;18.80;99.90
1461;DHT22;724;49.910;12.530;2022-10-16T15:12:44;18.80;99.90
1461;DHT22;724;49.910;12.530;2022-10-16T15:15:30;18.80;99.90
1461;DHT22;724;49.910;12.530;2022-10-16T15:17:58;18.80;99.90
1461;DHT22;724;49.910;12.530;2022-10-16T15:20:29;18.60;99.90
1461;DHT22;724;49.910;12.530;2022-10-16T15:22:56;18.60;99.90
1461;DHT22;724;49.910;12.530;2022-10-16T15:25:33;18.50;99.90
1461;DHT22;724;49.910;12.530;2022-10-16T15:28:02;18.40;99.90
1461;DHT22;724;49.910;12.530;2022-10-16T15:30:30;18.40;99.90
1461;DHT22;724;49.910;12.530;2022-10-16T15:32:56;18.30;99.90
1461;DHT22;724;49.910;12.530;2022-10-16T15:35:23;18.30;1.00
1461;DHT22;724;49.910;12.530;2022-10-16T15:37:51;18.10;1.00
1461;DHT22;724;49.910;12.530;2022-10-16T15:40:19;18.00;1.00
1461;DHT22;724;49.910;12.530;2022-10-16T15:42:46;17.90;1.00
1461;DHT22;724;49.910;12.530;2022-10-16T15:45:15;17.80;1.00
1461;DHT22;724;49.910;12.530;2022-10-16T15:47:42;17.80;1.00
1461;DHT22;724;49.910;12.530;2022-10-16T15:50:10;17.70;1.00
1461;DHT22;724;49.910;12.530;2022-10-16T15:52:38;17.60;1.00
1461;DHT22;724;49.910;12.530;2022-10-16T15:55:08;17.50;1.00
1461;DHT22;724;49.910;12.530;2022-10-16T15:57:35;17.50;1.00
1461;DHT22;724;49.910;12.530;2022-10-16T16:00:05;17.40;1.00
1461;DHT22;724;49.910;12.530;2022-10-16T16:02:32;17.20;1.00
1461;DHT22;724;49.910;12.530;2022-10-16T16:04:59;17.20;1.00
1461;DHT22;724;49.910;12.530;2022-10-16T16:07:27;17.10;1.00
1461;DHT22;724;49.910;12.530;2022-10-16T16:09:53;17.00;1.00
1461;DHT22;724;49.910;12.530;2022-10-16T16:12:22;17.00;1.00
1461;DHT22;724;49.910;12.530;2022-10-16T16:14:48;17.00;1.00
1461;DHT22;724;49.910;12.530;2022-10-16T16:17:16;16.90;1.00
1461;DHT22;724;49.910;12.530;2022-10-16T16:19:43;16.90;1.00
1461;DHT22;724;49.910;12.530;2022-10-16T16:22:11;16.90;1.00
1461;DHT22;724;49.910;12.530;2022-10-16T16:24:38;16.70;1.00